Time;durP1;ratioP1;P1;durP2;ratioP2;P2;SDS_P1;SDS_P2;PMS_P1;PMS_P2;Temp;Humidity;BMP_temperature;BMP_pressure;BME280_temperature;BME280_humidity;BME280_pressure;Samples;Min_cycle;Max_cycle;Signal;HPM_P1;HPM_P2
2021/10/05 00:01:17;;;;;;;19.48;11.57;;;;;;;7.96;70.25;100952.91;1671736;85;21102;-73
2021/10/05 00:03:47;;;;;;;24.52;11.60;;;;;;;7.94;70.30;100953.72;1643317;86;21073;-71
2021/10/05 00:06:18;;;;;;;18.85;12.58;;;;;;;7.91;70.40;100956.46;1649394;86;21023;-72
2021/10/05 00:08:48;;;;;;;19.92;11.40;;;;;;;7.89;70.51;100961.38;1645949;86;21539;-74
2021/10/05 00:11:18;;;;;;;20.30;12.13;;;;;;;7.88;70.59;100955.63;1639113;86;21085;-70
2021/10/05 00:13:52;;;;;;;21.20;11.20;;;;;;;7.86;70.64;100953.16;1649762;85;21096;-73
2021/10/05 00:16:20;;;;;;;22.50;14.07;;;;;;;7.85;70.76;100953.39;1646539;86;21019;-72
2021/10/05 00:18:49;;;;;;;25.17;13.08;;;;;;;7.84;70.89;100951.75;1648582;85;21076;-73
2021/10/05 00:21:20;;;;;;;23.95;13.43;;;;;;;7.83;70.98;100948.73;1647749;86;21061;-73
2021/10/05 00:23:46;;;;;;;23.95;14.33;;;;;;;7.81;71.01;100947.64;1643548;86;21039;-74
2021/10/05 00:26:13;;;;;;;22.82;14.47;;;;;;;7.79;71.14;100950.65;1647914;86;21770;-74
2021/10/05 00:28:44;;;;;;;27.48;16.10;;;;;;;7.79;71.22;100950.65;1647283;86;21020;-74
2021/10/05 00:31:11;;;;;;;22.67;15.05;;;;;;;7.77;71.30;100954.73;1648354;86;21077;-75
2021/10/05 00:33:41;;;;;;;26.12;14.87;;;;;;;7.74;71.37;100945.13;1646122;86;21126;-74
2021/10/05 00:36:12;;;;;;;20.12;13.62;;;;;;;7.72;71.42;100955.54;1631817;86;21070;-74
2021/10/05 00:38:42;;;;;;;23.83;15.20;;;;;;;7.69;71.48;100954.70;1649397;86;21163;-73
2021/10/05 00:41:10;;;;;;;24.02;14.35;;;;;;;7.64;71.61;100958.22;1637928;86;21563;-72
2021/10/05 00:43:36;;;;;;;25.05;15.53;;;;;;;7.62;71.79;100954.94;1646430;86;21048;-72
2021/10/05 00:46:04;;;;;;;27.37;16.85;;;;;;;7.62;71.96;100965.08;1644179;86;21028;-73
2021/10/05 00:48:36;;;;;;;26.10;16.02;;;;;;;7.62;72.06;100959.05;1646371;86;21068;-73
2021/10/05 00:51:04;;;;;;;28.45;17.42;;;;;;;7.61;72.05;100968.36;1643078;86;21538;-74
2021/10/05 00:53:42;;;;;;;27.93;16.42;;;;;;;7.59;72.12;100967.78;1628847;87;21123;-73
2021/10/05 00:56:13;;;;;;;26.93;16.07;;;;;;;7.55;72.17;100963.94;1646514;86;21066;-73
2021/10/05 00:58:44;;;;;;;26.30;16.07;;;;;;;7.52;72.25;100959.79;1649262;86;21038;-73
2021/10/05 01:01:15;;;;;;;29.57;15.90;;;;;;;7.50;72.29;100961.16;1648732;86;21028;-73
2021/10/05 01:03:43;;;;;;;26.52;16.17;;;;;;;7.45;72.42;100968.81;1630504;86;21085;-74
2021/10/05 01:06:17;;;;;;;24.18;14.93;;;;;;;7.43;72.60;100969.62;1646516;86;21026;-72
2021/10/05 01:08:47;;;;;;;25.85;15.75;;;;;;;7.42;72.78;100966.61;1627607;86;21656;-73
2021/10/05 01:11:15;;;;;;;26.82;16.02;;;;;;;7.41;72.83;100969.88;1648198;85;21537;-73
2021/10/05 01:13:44;;;;;;;24.55;14.07;;;;;;;7.41;72.93;100968.52;1629904;87;21019;-72
2021/10/05 01:16:19;;;;;;;29.35;16.65;;;;;;;7.41;73.02;100968.52;1648415;86;21508;-72
2021/10/05 01:18:47;;;;;;;29.52;16.77;;;;;;;7.40;73.04;100972.33;1644497;86;21007;-73
2021/10/05 01:21:18;;;;;;;27.27;15.50;;;;;;;7.38;73.12;100972.31;1644856;86;21004;-72
2021/10/05 01:23:47;;;;;;;29.67;16.30;;;;;;;7.36;73.17;100971.75;1623821;87;21121;-73
2021/10/05 01:26:20;;;;;;;30.43;16.20;;;;;;;7.33;73.27;100968.16;1649123;86;22324;-73
2021/10/05 01:28:54;;;;;;;26.70;14.73;;;;;;;7.31;73.41;100973.91;1644679;86;21924;-73
2021/10/05 01:31:23;;;;;;;26.62;15.48;;;;;;;7.30;73.46;100975.02;1647539;85;21134;-73
2021/10/05 01:33:56;;;;;;;25.55;13.88;;;;;;;7.28;73.58;100983.48;1647631;86;21103;-73
2021/10/05 01:36:23;;;;;;;22.82;13.72;;;;;;;7.26;73.71;100980.73;1649637;86;21045;-72
2021/10/05 01:38:52;;;;;;;24.18;14.65;;;;;;;7.25;73.89;100982.63;1648041;86;21030;-73
2021/10/05 01:41:19;;;;;;;26.07;14.50;;;;;;;7.26;73.98;100982.09;1629625;86;21022;-74
2021/10/05 01:43:49;;;;;;;27.07;14.70;;;;;;;7.25;74.10;100984.00;1635682;86;21020;-73
2021/10/05 01:46:19;;;;;;;27.77;16.05;;;;;;;7.25;74.16;100984.00;1642412;86;21034;-72
2021/10/05 01:48:48;;;;;;;25.62;14.73;;;;;;;7.23;74.29;100980.72;1635554;86;21018;-71
2021/10/05 01:51:16;;;;;;;24.18;15.23;;;;;;;7.23;74.35;100982.63;1630695;86;21026;-72
2021/10/05 01:53:44;;;;;;;29.23;15.78;;;;;;;7.22;74.37;100983.16;1634862;86;21182;-71
2021/10/05 01:56:18;;;;;;;23.85;13.93;;;;;;;7.22;74.33;100982.33;1638718;86;21530;-73
2021/10/05 01:58:46;;;;;;;26.52;13.88;;;;;;;7.21;74.39;100987.00;1641888;86;21058;-74
2021/10/05 02:01:15;;;;;;;29.35;13.55;;;;;;;7.18;74.44;100982.85;1640259;86;21041;-73
2021/10/05 02:03:42;;;;;;;30.75;14.83;;;;;;;7.18;74.51;100982.85;1638792;86;21092;-74
2021/10/05 02:06:10;;;;;;;25.50;14.33;;;;;;;7.18;74.59;100987.53;1641381;86;21026;-74
2021/10/05 02:08:39;;;;;;;33.02;15.90;;;;;;;7.19;74.70;100986.43;1635612;86;21096;-73
2021/10/05 02:11:12;;;;;;;25.85;14.93;;;;;;;7.20;74.69;100992.19;1632708;86;21164;-73
2021/10/05 02:13:42;;;;;;;27.05;15.78;;;;;;;7.19;74.66;100994.66;1650871;86;21065;-73
2021/10/05 02:16:14;;;;;;;31.87;16.52;;;;;;;7.17;74.70;100997.66;1640665;86;21051;-73
2021/10/05 02:18:46;;;;;;;36.85;16.32;;;;;;;7.14;74.75;100998.19;1636388;86;21062;-72
2021/10/05 02:21:17;;;;;;;31.23;16.37;;;;;;;7.10;74.74;101011.28;1635735;86;21538;-73
2021/10/05 02:26:37;;;;;;;32.48;14.63;;;;;;;7.05;74.94;101013.44;1637634;86;21074;-74
2021/10/05 02:29:05;;;;;;;29.45;14.75;;;;;;;7.04;75.06;101014.00;1629729;86;21097;-73
2021/10/05 02:31:34;;;;;;;41.13;14.78;;;;;;;7.05;75.12;101023.87;1644291;86;21530;-73
2021/10/05 02:34:04;;;;;;;37.83;15.85;;;;;;;7.03;75.14;101020.55;1638864;86;21089;-76
2021/10/05 02:36:35;;;;;;;30.08;15.78;;;;;;;7.02;75.26;101023.55;1640093;86;21025;-73
2021/10/05 02:39:04;;;;;;;32.63;16.90;;;;;;;7.01;75.33;101022.72;1630048;86;21784;-71
2021/10/05 02:41:40;;;;;;;42.95;17.07;;;;;;;7.00;75.34;101024.35;1641989;86;21047;-72
2021/10/05 02:44:10;;;;;;;36.15;15.60;;;;;;;7.00;75.38;101022.98;1642942;86;21129;-72
2021/10/05 02:46:43;;;;;;;39.25;15.80;;;;;;;6.99;75.42;101022.17;1647320;86;21504;-73
2021/10/05 02:49:12;;;;;;;33.55;14.78;;;;;;;6.98;75.40;101028.72;1644560;86;21002;-72
2021/10/05 02:51:43;;;;;;;33.30;15.93;;;;;;;6.97;75.42;101031.19;1645639;86;21033;-72
2021/10/05 02:54:10;;;;;;;32.90;15.63;;;;;;;6.93;75.51;101036.36;1647492;86;21541;-72
2021/10/05 02:56:40;;;;;;;46.10;16.02;;;;;;;6.93;75.66;101036.36;1644136;86;21163;-73
2021/10/05 02:59:16;;;;;;;35.30;16.07;;;;;;;6.94;75.68;101034.45;1651081;85;21540;-73
2021/10/05 03:01:45;;;;;;;39.50;16.12;;;;;;;6.91;75.70;101033.04;1648361;86;21064;-72
2021/10/05 03:04:19;;;;;;;31.17;16.35;;;;;;;6.89;75.75;101033.03;1666243;85;21571;-72
2021/10/05 03:06:56;;;;;;;33.08;16.20;;;;;;;6.87;75.73;101034.66;1665980;85;21009;-73
2021/10/05 03:09:23;;;;;;;;;;;;;;;6.81;75.79;101022.81;1671800;84;21781;-74
2021/10/05 03:11:53;;;;;;;29.63;14.63;;;;;;;6.80;75.95;101029.92;1671235;85;20146;-73
2021/10/05 03:14:21;;;;;;;33.70;15.10;;;;;;;6.76;76.04;101029.60;1668576;85;21033;-72
2021/10/05 03:16:51;;;;;;;29.52;15.80;;;;;;;6.76;76.18;101029.60;1671747;85;21552;-73
2021/10/05 03:19:17;;;;;;;31.77;16.45;;;;;;;6.78;76.31;101025.23;1664324;85;21036;-72
2021/10/05 03:21:48;;;;;;;40.60;15.72;;;;;;;6.78;76.33;101024.70;1672324;85;21047;-74
2021/10/05 03:24:14;;;;;;;34.38;16.95;;;;;;;6.78;76.30;101027.97;1658863;85;21052;-74
2021/10/05 03:26:42;;;;;;;35.17;16.82;;;;;;;6.74;76.37;101030.39;1670487;85;21124;-73
2021/10/05 03:29:13;;;;;;;28.87;17.02;;;;;;;6.73;76.40;101027.37;1665904;84;21378;-74
2021/10/05 03:31:43;;;;;;;37.28;16.25;;;;;;;6.71;76.40;101030.91;1667576;85;21544;-73
2021/10/05 03:34:12;;;;;;;35.05;16.67;;;;;;;6.66;76.48;101035.80;1669380;85;21486;-73
2021/10/05 03:36:47;;;;;;;34.53;16.50;;;;;;;6.66;76.67;101036.33;1668461;85;21066;-72
2021/10/05 03:39:22;;;;;;;37.70;17.02;;;;;;;6.64;76.80;101037.96;1665609;85;21567;-73
2021/10/05 03:41:54;;;;;;;37.28;15.35;;;;;;;6.61;76.78;101037.11;1651757;84;21671;-72
2021/10/05 03:44:22;;;;;;;37.13;17.37;;;;;;;6.60;76.96;101038.73;1648207;85;21049;-74
2021/10/05 03:46:51;;;;;;;35.65;18.32;;;;;;;6.63;77.05;101039.59;1647936;86;21058;-72
2021/10/05 03:49:21;;;;;;;34.55;17.07;;;;;;;6.62;77.01;101044.23;1639539;85;21049;-74
2021/10/05 03:51:51;;;;;;;36.08;18.25;;;;;;;6.60;77.21;101042.84;1636627;86;21045;-73
2021/10/05 03:54:21;;;;;;;30.02;16.27;;;;;;;6.60;77.25;101042.31;1649057;86;21553;-72
2021/10/05 03:56:55;;;;;;;27.87;16.30;;;;;;;6.60;77.29;101039.58;1647936;86;21060;-72
2021/10/05 03:59:23;;;;;;;41.18;16.97;;;;;;;6.60;77.24;101042.31;1647236;85;21070;-73
2021/10/05 04:01:52;;;;;;;29.05;16.40;;;;;;;6.61;77.29;101048.06;1641307;86;21042;-73
2021/10/05 04:04:27;;;;;;;37.35;16.90;;;;;;;6.63;77.38;101044.53;1643002;86;21037;-72
2021/10/05 04:07:01;;;;;;;31.77;16.60;;;;;;;6.66;77.42;101044.55;1646148;85;21065;-72
2021/10/05 04:09:31;;;;;;;30.90;16.40;;;;;;;6.66;77.34;101034.97;1638598;86;21541;-73
2021/10/05 04:12:04;;;;;;;29.90;16.17;;;;;;;6.64;77.34;101035.22;1648489;85;21064;-73
2021/10/05 04:14:30;;;;;;;34.50;17.50;;;;;;;6.63;77.37;101043.70;1648085;86;21527;-73
2021/10/05 04:17:04;;;;;;;31.95;17.70;;;;;;;6.58;77.43;101042.54;1642987;86;21022;-72
2021/10/05 04:19:32;;;;;;;28.15;17.02;;;;;;;6.57;77.52;101045.54;1644424;86;21483;-74
2021/10/05 04:22:03;;;;;;;29.98;16.05;;;;;;;6.56;77.51;101050.21;1647610;86;21026;-72
2021/10/05 04:24:31;;;;;;;27.87;16.48;;;;;;;6.55;77.65;101055.94;1648061;86;21037;-71
2021/10/05 04:27:12;;;;;;;31.65;17.00;;;;;;;6.53;77.74;101053.47;1644343;86;21013;-73
2021/10/05 04:29:43;;;;;;;28.30;16.73;;;;;;;6.54;77.83;101059.75;1641793;86;21044;-73
2021/10/05 04:32:19;;;;;;;31.35;18.23;;;;;;;6.56;77.89;101066.64;1645675;85;21052;-72
2021/10/05 04:34:54;;;;;;;29.77;17.27;;;;;;;6.57;77.88;101064.71;1643880;86;21089;-73
2021/10/05 04:37:25;;;;;;;26.68;17.23;;;;;;;6.60;77.95;101071.08;1641866;86;21832;-73
2021/10/05 04:40:00;;;;;;;37.58;18.20;;;;;;;6.62;77.92;101072.19;1646017;85;21029;-75
2021/10/05 04:42:29;;;;;;;35.28;17.82;;;;;;;6.63;77.91;101071.09;1656315;85;21598;-72
2021/10/05 04:45:01;;;;;;;31.62;17.00;;;;;;;6.64;77.96;101071.36;1653044;85;21149;-73
2021/10/05 04:47:30;;;;;;;21.30;13.40;;;;;;;6.65;77.88;101076.59;1668663;84;21670;-72
2021/10/05 04:49:58;;;;;;;24.87;16.00;;;;;;;6.67;78.00;101074.42;1663768;85;21110;-72
2021/10/05 04:52:29;;;;;;;34.78;17.30;;;;;;;6.69;78.09;101079.64;1671032;84;21493;-73
2021/10/05 04:55:02;;;;;;;25.52;16.57;;;;;;;6.74;78.11;101083.81;1673262;85;21091;-73
2021/10/05 04:57:31;;;;;;;29.95;16.80;;;;;;;6.78;78.08;101086.88;1667939;84;21081;-73
2021/10/05 04:59:57;;;;;;;26.57;17.27;;;;;;;6.82;78.02;101088.84;1650816;85;21262;-72
2021/10/05 05:02:26;;;;;;;32.55;17.73;;;;;;;6.83;77.92;101093.78;1667118;85;21165;-72
2021/10/05 05:04:57;;;;;;;30.80;18.40;;;;;;;6.85;78.00;101093.00;1667620;85;21526;-72
2021/10/05 05:07:25;;;;;;;31.68;19.02;;;;;;;6.89;77.92;101101.53;1647866;85;21921;-72
2021/10/05 05:09:51;;;;;;;29.98;16.95;;;;;;;6.89;77.90;101104.28;1666563;85;21085;-71
2021/10/05 05:12:20;;;;;;;28.30;18.05;;;;;;;6.92;77.93;101109.23;1638561;86;21117;-72
2021/10/05 05:14:46;;;;;;;28.38;16.57;;;;;;;6.98;77.92;101104.66;1647434;86;21083;-72
2021/10/05 05:17:12;;;;;;;33.13;16.42;;;;;;;7.03;77.79;101112.38;1653236;86;21013;-73
2021/10/05 05:19:42;;;;;;;33.40;18.05;;;;;;;7.10;77.83;101109.96;1652603;86;21068;-72
2021/10/05 05:22:09;;;;;;;34.25;17.73;;;;;;;7.17;77.71;101111.44;1640230;86;21099;-73
2021/10/05 05:24:36;;;;;;;33.80;18.85;;;;;;;7.21;77.40;101110.38;1642778;86;21547;-73
2021/10/05 05:27:03;;;;;;;28.85;18.07;;;;;;;7.24;77.31;101109.02;1650922;86;21454;-73
2021/10/05 05:29:36;;;;;;;35.15;18.48;;;;;;;7.27;77.28;101119.47;1641928;86;21500;-72
2021/10/05 05:32:06;;;;;;;28.42;16.70;;;;;;;7.31;77.25;101123.36;1639001;86;21088;-73
2021/10/05 05:34:37;;;;;;;32.97;16.57;;;;;;;7.38;77.23;101125.89;1653440;85;21061;-73
2021/10/05 05:37:06;;;;;;;29.63;16.70;;;;;;;7.45;77.14;101127.05;1651901;86;21081;-74
2021/10/05 05:39:39;;;;;;;28.32;16.75;;;;;;;7.52;77.13;101129.86;1653189;86;21175;-73
2021/10/05 05:42:03;;;;;;;34.13;18.90;;;;;;;7.60;76.87;101137.34;1667132;85;21053;-72
2021/10/05 05:44:34;;;;;;;30.65;17.62;;;;;;;7.67;76.57;101135.22;1669075;84;21053;-73
2021/10/05 05:47:02;;;;;;;35.17;18.27;;;;;;;7.67;76.48;101137.42;1637031;86;21134;-72
2021/10/05 05:49:35;;;;;;;37.35;19.70;;;;;;;7.75;76.53;101140.76;1638449;86;21100;-73
2021/10/05 05:52:03;;;;;;;41.33;19.10;;;;;;;7.83;76.46;101142.21;1613126;87;21140;-74
2021/10/05 05:54:32;;;;;;;41.45;18.85;;;;;;;7.89;75.95;101139.78;1637537;86;21012;-73
2021/10/05 05:57:01;;;;;;;30.55;18.57;;;;;;;7.88;75.63;101143.62;1651073;86;21057;-72
2021/10/05 05:59:35;;;;;;;31.65;17.70;;;;;;;7.90;75.70;101144.17;1633390;86;21041;-71
2021/10/05 06:02:03;;;;;;;28.73;17.57;;;;;;;7.95;75.73;101143.41;1645856;86;21558;-73
2021/10/05 06:04:30;;;;;;;28.67;17.52;;;;;;;8.02;75.66;101146.20;1674886;84;22145;-74
2021/10/05 06:06:57;;;;;;;40.03;18.37;;;;;;;8.11;75.64;101142.42;1676119;84;21049;-73
2021/10/05 06:09:35;;;;;;;36.83;20.23;;;;;;;8.18;75.32;101153.17;1665002;84;21056;-74
2021/10/05 06:12:08;;;;;;;28.20;17.95;;;;;;;8.26;75.37;101149.94;1677027;84;21056;-74
2021/10/05 06:14:33;;;;;;;30.70;18.73;;;;;;;8.36;75.20;101160.72;1654231;85;21081;-73
2021/10/05 06:17:10;;;;;;;29.65;19.90;;;;;;;8.47;75.13;101165.72;1633008;86;21075;-74
2021/10/05 06:19:37;;;;;;;35.85;20.62;;;;;;;8.53;74.57;101164.64;1675430;84;21050;-74
2021/10/05 06:22:07;;;;;;;29.55;18.42;;;;;;;8.56;74.33;101159.20;1671772;84;21049;-73
2021/10/05 06:24:39;;;;;;;38.70;19.48;;;;;;;8.61;74.44;101162.82;1647844;84;21034;-74
2021/10/05 06:27:05;;;;;;;31.35;18.32;;;;;;;8.73;74.31;101159.02;1677984;84;21010;-73
2021/10/05 06:29:37;;;;;;;26.17;16.82;;;;;;;8.83;74.14;101163.73;1676414;84;21046;-74
2021/10/05 06:32:04;;;;;;;21.97;15.78;;;;;;;8.90;73.85;101161.58;1658848;84;21121;-73
2021/10/05 06:34:32;;;;;;;26.42;17.80;;;;;;;8.97;73.83;101164.08;1676497;84;21044;-73
2021/10/05 06:37:01;;;;;;;27.60;17.57;;;;;;;9.08;73.84;101164.92;1676378;84;21062;-73
2021/10/05 06:39:27;;;;;;;28.30;18.57;;;;;;;9.20;73.79;101165.52;1664886;84;21560;-73
2021/10/05 06:41:56;;;;;;;34.53;17.62;;;;;;;9.31;73.45;101166.92;1675684;84;21151;-73
2021/10/05 06:44:22;;;;;;;34.40;19.37;;;;;;;9.39;73.10;101163.64;1669647;85;21118;-73
2021/10/05 06:46:53;;;;;;;32.13;18.82;;;;;;;9.48;72.91;101171.63;1636330;86;21022;-72
2021/10/05 06:49:22;;;;;;;30.95;18.50;;;;;;;9.53;72.56;101169.45;1673083;85;21008;-73
2021/10/05 06:51:51;;;;;;;27.37;16.97;;;;;;;9.59;72.37;101167.52;1667528;85;21056;-73
2021/10/05 06:54:18;;;;;;;29.32;15.80;;;;;;;9.65;72.19;101169.20;1654426;85;21157;-73
2021/10/05 06:56:44;;;;;;;26.97;16.17;;;;;;;9.73;72.13;101168.65;1673456;85;21100;-73
2021/10/05 06:59:18;;;;;;;27.07;18.00;;;;;;;9.84;72.04;101170.03;1672169;85;21062;-73
2021/10/05 07:01:48;;;;;;;22.80;16.93;;;;;;;9.94;71.78;101164.53;1644759;85;21069;-72
2021/10/05 07:04:15;;;;;;;28.45;17.37;;;;;;;10.00;71.31;101165.34;1593432;88;21056;-73
2021/10/05 07:06:47;;;;;;;30.85;17.85;;;;;;;10.04;71.45;101168.38;1651868;86;21322;-72
2021/10/05 07:09:18;;;;;;;27.70;18.57;;;;;;;10.13;71.34;101170.86;1651517;85;21081;-73
2021/10/05 07:11:48;;;;;;;27.30;17.95;;;;;;;10.25;71.14;101176.63;1642883;86;21107;-74
2021/10/05 07:14:18;;;;;;;27.35;17.87;;;;;;;10.34;70.82;101177.70;1645152;86;21014;-72
2021/10/05 07:16:46;;;;;;;28.95;18.23;;;;;;;10.40;70.37;101176.61;1644189;86;21045;-72
2021/10/05 07:19:13;;;;;;;21.65;15.43;;;;;;;10.48;70.25;101172.47;1656072;85;21091;-74
2021/10/05 07:21:41;;;;;;;26.77;16.95;;;;;;;10.55;69.89;101170.80;1633193;86;21537;-74
2021/10/05 07:24:12;;;;;;;25.17;16.73;;;;;;;10.61;69.84;101179.32;1638091;86;21068;-73
2021/10/05 07:26:42;;;;;;;26.97;16.55;;;;;;;10.69;69.71;101177.94;1639960;86;21103;-72
2021/10/05 07:29:14;;;;;;;29.32;16.90;;;;;;;10.76;69.45;101181.23;1639783;86;21063;-73
2021/10/05 07:31:46;;;;;;;27.55;16.87;;;;;;;10.84;69.44;101181.20;1638395;86;21073;-73
2021/10/05 07:34:16;;;;;;;31.75;18.73;;;;;;;10.91;69.21;101190.00;1639862;86;21147;-73
2021/10/05 07:36:50;;;;;;;27.25;17.27;;;;;;;11.00;68.81;101186.66;1655527;85;21101;-72
2021/10/05 07:39:20;;;;;;;26.10;17.35;;;;;;;11.06;68.56;101195.17;1676078;84;21659;-73
2021/10/05 07:41:52;;;;;;;28.00;17.80;;;;;;;11.12;68.12;101194.60;1670132;85;21109;-72
2021/10/05 07:44:19;;;;;;;30.10;17.90;;;;;;;11.14;67.69;101199.30;1656256;85;21021;-72
2021/10/05 07:46:53;;;;;;;23.50;15.43;;;;;;;11.17;67.77;101195.39;1677726;85;20986;-70
2021/10/05 07:49:20;;;;;;;64.95;18.57;;;;;;;11.23;67.82;101193.44;1675808;84;21096;-71
2021/10/05 07:51:47;;;;;;;33.90;16.75;;;;;;;11.32;67.82;101193.67;1664769;85;21128;-72
2021/10/05 07:54:24;;;;;;;27.45;17.20;;;;;;;11.42;67.76;101196.92;1670526;85;21116;-71
2021/10/05 07:56:52;;;;;;;29.37;16.90;;;;;;;11.52;67.44;101201.55;1670614;84;22381;-72
2021/10/05 07:59:22;;;;;;;24.32;15.75;;;;;;;11.61;67.20;101200.41;1677379;84;21136;-72
2021/10/05 08:01:50;;;;;;;23.55;16.67;;;;;;;11.67;66.75;101195.10;1675845;85;21056;-72
2021/10/05 08:04:17;;;;;;;33.78;17.45;;;;;;;11.72;66.47;101194.27;1653699;85;21047;-71
2021/10/05 08:06:48;;;;;;;53.30;18.60;;;;;;;11.77;66.24;101192.27;1664003;85;21371;-72
2021/10/05 08:09:21;;;;;;;35.63;18.25;;;;;;;11.84;66.04;101196.09;1665846;85;22210;-72
2021/10/05 08:11:49;;;;;;;28.55;16.57;;;;;;;11.91;65.99;101201.28;1665206;85;21768;-72
2021/10/05 08:14:18;;;;;;;30.10;15.28;;;;;;;11.98;66.08;101202.34;1663427;85;21573;-72
2021/10/05 08:16:48;;;;;;;24.95;16.37;;;;;;;12.07;65.70;101202.55;1656413;85;21011;-73
2021/10/05 08:19:17;;;;;;;24.07;15.60;;;;;;;12.15;65.69;101199.19;1666695;85;21520;-73
2021/10/05 08:21:45;;;;;;;25.70;16.40;;;;;;;12.25;65.84;101202.41;1671502;84;21509;-73
2021/10/05 08:24:19;;;;;;;22.35;15.00;;;;;;;12.33;65.41;101199.59;1677890;85;21069;-72
2021/10/05 08:26:48;;;;;;;28.23;16.30;;;;;;;12.43;65.42;101202.27;1685212;84;21591;-71
2021/10/05 08:29:25;;;;;;;;;;;;;;;12.55;65.17;101203.25;1675863;85;20987;-72
2021/10/05 08:31:57;;;;;;;26.95;16.97;;;;;;;12.63;65.30;101197.08;1642834;86;20171;-72
2021/10/05 08:34:25;;;;;;;27.27;18.07;;;;;;;12.71;64.87;101200.33;1647391;86;21104;-71
2021/10/05 08:36:52;;;;;;;26.20;16.57;;;;;;;12.79;64.86;101199.67;1648074;85;21073;-71
2021/10/05 08:39:24;;;;;;;21.85;15.25;;;;;;;12.88;64.15;101193.74;1638222;86;21630;-73
2021/10/05 08:41:59;;;;;;;24.60;16.02;;;;;;;12.97;64.00;101194.47;1647381;85;21501;-72
2021/10/05 08:44:29;;;;;;;23.47;16.57;;;;;;;13.02;63.42;101195.23;1629329;86;21017;-70
2021/10/05 08:47:03;;;;;;;26.68;16.73;;;;;;;13.07;63.36;101200.46;1639751;86;21529;-72
2021/10/05 08:49:36;;;;;;;23.73;14.85;;;;;;;13.11;63.06;101205.09;1632468;86;21069;-72
2021/10/05 08:52:06;;;;;;;30.02;15.90;;;;;;;13.15;62.75;101199.80;1633849;86;21065;-72
2021/10/05 08:54:34;;;;;;;21.42;15.43;;;;;;;13.24;62.57;101205.47;1630230;86;21090;-73
2021/10/05 08:57:04;;;;;;;26.23;16.25;;;;;;;13.27;61.74;101202.13;1641021;86;21608;-70
2021/10/05 08:59:30;;;;;;;27.37;14.35;;;;;;;13.30;61.95;101202.92;1636436;86;21441;-71
2021/10/05 09:01:57;;;;;;;24.87;15.83;;;;;;;13.39;61.85;101202.50;1639284;86;21070;-72
2021/10/05 09:04:29;;;;;;;25.08;15.72;;;;;;;13.50;61.74;101202.36;1635963;86;21097;-72
2021/10/05 09:07:00;;;;;;;23.35;15.25;;;;;;;13.59;61.58;101197.84;1640645;86;20994;-73
2021/10/05 09:09:26;;;;;;;23.30;15.08;;;;;;;13.67;61.35;101203.80;1638464;86;22297;-74
2021/10/05 09:11:53;;;;;;;25.05;14.75;;;;;;;13.72;60.75;101200.41;1635707;86;21033;-72
2021/10/05 09:14:22;;;;;;;29.60;19.92;;;;;;;13.75;60.79;101202.56;1634720;86;21073;-71
2021/10/05 09:16:51;;;;;;;31.20;17.27;;;;;;;13.83;60.65;101201.08;1635570;86;21542;-73
2021/10/05 09:19:22;;;;;;;23.27;14.65;;;;;;;13.93;60.27;101202.02;1629999;86;21037;-72
2021/10/05 09:21:53;;;;;;;20.23;14.28;;;;;;;14.03;60.56;101207.41;1635778;86;22089;-70
2021/10/05 09:24:39;;;;;;;24.00;14.40;;;;;;;14.13;59.92;101205.02;1643562;86;21135;-71
2021/10/05 09:27:02;;;;;;;23.12;15.18;;;;;;;14.23;59.21;101202.63;1637357;86;21101;-72
2021/10/05 09:29:36;;;;;;;23.52;15.35;;;;;;;14.31;59.43;101206.66;1629916;86;21073;-73
2021/10/05 09:32:12;;;;;;;21.05;14.38;;;;;;;14.39;59.45;101203.74;1626130;86;21101;-70
2021/10/05 09:34:54;;;;;;;23.90;14.03;;;;;;;14.47;59.03;101196.94;1635777;86;21097;-72
2021/10/05 09:37:30;;;;;;;56.48;17.75;;;;;;;14.54;58.84;101187.38;1638716;86;21562;-73
2021/10/05 09:40:10;;;;;;;40.43;14.95;;;;;;;14.62;59.25;101186.66;1639759;86;21553;-73
2021/10/05 09:42:47;;;;;;;17.55;13.30;;;;;;;14.67;58.72;101179.63;1642990;85;21116;-72
2021/10/05 09:45:21;;;;;;;19.17;12.68;;;;;;;14.71;58.33;101184.83;1646346;86;21064;-73
2021/10/05 09:47:55;;;;;;;18.05;12.07;;;;;;;14.77;58.02;101188.89;1634828;86;21077;-73
2021/10/05 09:50:28;;;;;;;23.07;12.85;;;;;;;14.85;57.45;101190.98;1645866;86;21159;-72
2021/10/05 09:53:03;;;;;;;19.40;11.73;;;;;;;14.94;56.64;101189.69;1631320;86;21228;-72
2021/10/05 09:55:39;;;;;;;16.90;11.33;;;;;;;15.00;56.43;101189.83;1646489;86;21164;-73
2021/10/05 09:58:05;;;;;;;33.28;11.93;;;;;;;15.08;56.25;101187.72;1637507;86;21018;-72
2021/10/05 10:00:38;;;;;;;16.12;10.60;;;;;;;15.17;55.60;101186.98;1647635;85;21017;-73
2021/10/05 10:03:13;;;;;;;14.07;9.95;;;;;;;15.23;55.61;101184.92;1648509;85;21061;-72
2021/10/05 10:05:40;;;;;;;13.58;10.08;;;;;;;15.29;55.08;101185.05;1644641;86;21050;-72
2021/10/05 10:08:09;;;;;;;13.55;8.95;;;;;;;15.33;54.12;101193.86;1647636;85;21201;-73
2021/10/05 10:10:38;;;;;;;17.67;9.65;;;;;;;15.38;54.03;101187.36;1648083;85;21057;-73
2021/10/05 10:13:10;;;;;;;13.35;9.33;;;;;;;15.45;53.77;101189.16;1649228;86;21115;-72
2021/10/05 10:15:43;;;;;;;18.65;8.88;;;;;;;15.53;53.79;101185.36;1645056;86;21168;-73
2021/10/05 10:18:16;;;;;;;12.68;8.90;;;;;;;15.60;53.77;101184.36;1637080;86;21112;-73
2021/10/05 10:20:53;;;;;;;13.03;9.10;;;;;;;15.68;53.49;101186.95;1639232;86;21085;-71
2021/10/05 10:23:24;;;;;;;27.20;8.98;;;;;;;15.75;52.94;101185.95;1647241;85;21044;-72
2021/10/05 10:26:06;;;;;;;10.65;7.42;;;;;;;15.82;52.62;101178.56;1652418;85;21591;-71
2021/10/05 10:28:43;;;;;;;11.75;7.58;;;;;;;15.91;52.54;101175.30;1638981;86;21637;-73
2021/10/05 10:31:18;;;;;;;11.60;7.37;;;;;;;15.96;52.36;101177.11;1647386;86;21104;-72
2021/10/05 10:33:48;;;;;;;14.43;8.08;;;;;;;15.98;50.72;101167.06;1645971;86;21095;-73
2021/10/05 10:36:31;;;;;;;15.85;7.15;;;;;;;15.87;50.56;101159.55;1648285;86;21038;-72
2021/10/05 10:39:18;;;;;;;10.90;6.75;;;;;;;15.76;50.34;101152.84;1649362;85;21644;-71
2021/10/05 10:41:57;;;;;;;11.70;7.08;;;;;;;15.69;51.00;101151.90;1647060;86;21784;-72
2021/10/05 10:44:37;;;;;;;10.80;6.90;;;;;;;15.65;50.16;101154.24;1649612;86;21113;-72
2021/10/05 10:47:23;;;;;;;10.20;7.17;;;;;;;15.62;49.13;101149.32;1651611;86;21124;-71
2021/10/05 10:49:59;;;;;;;13.53;7.72;;;;;;;15.64;48.97;101154.83;1658936;86;21082;-72
2021/10/05 10:52:37;;;;;;;18.65;7.90;;;;;;;15.68;49.20;101156.38;1660314;86;21055;-71
2021/10/05 10:55:10;;;;;;;14.03;6.75;;;;;;;15.75;48.87;101150.39;1658268;86;21132;-71
2021/10/05 10:57:55;;;;;;;8.50;5.92;;;;;;;15.79;48.79;101142.52;1657645;86;21072;-71
2021/10/05 11:00:28;;;;;;;8.08;6.10;;;;;;;15.81;48.59;101145.77;1659666;86;21062;-71
2021/10/05 11:03:05;;;;;;;9.98;7.03;;;;;;;15.89;48.43;101145.59;1659904;85;21041;-72
2021/10/05 11:05:34;;;;;;;10.63;6.05;;;;;;;16.00;48.08;101142.00;1658841;86;21018;-72
2021/10/05 11:08:17;;;;;;;9.68;6.05;;;;;;;16.03;48.18;101141.95;1658158;86;21754;-72
2021/10/05 11:10:43;;;;;;;14.65;5.80;;;;;;;16.03;47.89;101135.00;1659191;86;21030;-71
2021/10/05 11:13:12;;;;;;;13.30;5.47;;;;;;;15.99;47.75;101141.76;1658669;86;21047;-73
2021/10/05 11:15:47;;;;;;;10.58;4.97;;;;;;;15.94;46.98;101139.08;1657886;86;21105;-71
2021/10/05 11:18:19;;;;;;;7.62;5.00;;;;;;;15.80;46.93;101131.64;1658781;86;21084;-71
2021/10/05 11:20:51;;;;;;;8.08;4.67;;;;;;;15.74;47.01;101132.91;1652907;86;21613;-71
2021/10/05 11:23:23;;;;;;;9.15;4.87;;;;;;;15.78;47.48;101128.34;1660233;86;21053;-72
2021/10/05 11:26:00;;;;;;;6.33;4.80;;;;;;;15.85;46.95;101127.10;1657742;86;21021;-71
2021/10/05 11:28:33;;;;;;;15.50;5.70;;;;;;;15.88;46.60;101120.91;1659784;86;21023;-71
2021/10/05 11:31:04;;;;;;;9.15;4.72;;;;;;;15.92;46.67;101121.34;1650982;86;21110;-71
2021/10/05 11:33:40;;;;;;;13.58;4.92;;;;;;;16.02;46.58;101113.91;1658711;86;21064;-72
2021/10/05 11:36:21;;;;;;;8.53;5.85;;;;;;;16.13;47.63;101118.05;1664253;85;21064;-71